Vermontville, New York
Current Conditions -  °F | °C
As of 6:07 AM on Friday 31 Oct 2014 (Local Time) from KSLK Reporting Station
Haze Haze  
Wind Chill: 29°   Ceiling: 100
Heat Index: 29°   Visibility: 0.75mi
Dew Point: 28°   Wind: 0mph
Humidity: 96%   Direction: NA
Pressure: 29.97"   Gusts: NA
Location:  44.45°N, 74.07°W
Report Text: KSLK 311007Z AUTO 00000KT 3/4SM BR VV001 M02/M02 A2997 RMK AO2 T10171022
Loading
Personal Weather Stations






























Interactive Weather Map
Tropical Storm Tracking
New forecast layout! Learn more

10-Day Weather Forecast

Advertisements
Track Severe Weather on mobile